Happy Trails
Timing and Scoring by Toledo Roadrunners

 

PlaceDiv/TotSex/TotNet TimePaceFirst NameLast NameAgeSexCity
1 1/21 1/284 15:38 5:02 EVAN GAYNOR 26 M Perrysburg
2 1/83 2/284 15:53 5:07 GEOFFREY KIPROTICH 34 M SYLVANIA
3 1/13 3/284 16:00 5:09 JONATHAN DEWITT 24 M TOLEDO
4 1/30 4/284 16:11 5:13 EDWARD KORIR 35 M TOLEDO
5 2/13 5/284 16:54 5:27 JACOB BARNES 22 M Toledo
6 1/16 6/284 16:54 5:27 DREW SAVAGE 19 M SYLVANIA
7 1/31 7/284 17:28 5:38 HENRY MALDONADO 49 M TOLEDO
8 1/28 8/284 17:34 5:40 STEVE HART 42 M Toledo
9 2/30 9/284 17:50 5:45 KEVIN EGAN 38 M TOLEDO
10 1/32 1/331 17:53 5:46 BROOKE TULLIS 22 F MAUMEE
11 3/13 10/284 18:05 5:49 JOHN WOODARKSI III 21 M Sylvania
12 2/32 2/331 18:27 5:57 KRISTAL STUDER 24 F TOLEDO
13 4/13 11/284 18:32 5:58 DAN RICHIE 22 M SYLVANIA
14 5/13 12/284 18:35 5:59 MICHAEL MC NAMARA 22 M TOLEDO
15 2/31 13/284 18:43 6:02 WESLEY MCKEE 46 M lambertvil
16 2/28 14/284 18:50 6:04 TODD GERMANA 40 M Sylvania
17 3/30 15/284 18:52 6:05 KEN CORCORAN 37 M Sylvania
18 2/21 16/284 18:57 6:06 NEIL FLANNER 29 M TOLEDO
19 1/39 17/284 19:05 6:09 JOE BAKER 52 M Millbury
20 2/16 18/284 19:14 6:12 BEN NEWMAN 18 M TOLEDO
21 3/31 19/284 19:21 6:14 TOM SILVA 46 M Maumee
22 3/16 20/284 19:28 6:16 ROBERT BROGAN 17 M Toledo
23 1/16 3/331 19:31 6:17 ALEX WAINSTEIN 18 F Toledo
24 3/28 21/284 19:34 6:18 SEAN SAVAGE 43 M SYLVANIA
25 1/12 22/284 19:38 6:19 SAM TORRES 61 M Toledo
26 1/14 23/284 19:49 6:23 SEAN HOEFT 13 M Martin
27 4/28 24/284 19:52 6:24 MARTIN GEITHMANN 40 M Toledo
28 2/39 25/284 19:53 6:24 CRAIG SWOPE 51 M Findlay
29 3/32 4/331 19:53 6:24 LIZ LEMON 21 F BOWLING GRE
30 3/39 26/284 20:13 6:31 TIMOTHY MOONEY 54 M Toledo
31 4/16 27/284 20:15 6:31 JACOB GIBBS 15 M Ottawa Lak
32 1/19 28/284 20:24 6:34 ED OSBORNE 59 M Toledo
33 3/21 29/284 20:31 6:36 KWAKU KANKAM 29 M FT LAUDERDA
34 5/16 30/284 20:31 6:36 MICHAEL DIBBLE 18 M Toledo
35 4/21 31/284 20:32 6:37 BRIAN ROESSNER 29 M Toledo
36 5/28 32/284 20:32 6:37 NICK WHETSEL 44 M Pulaski
37 4/39 33/284 20:36 6:38 WAYNE SMITH 53 M SLYVANIA
38 6/13 34/284 20:38 6:39 ETHAN BLASHFORD 20 M Toledo
39 2/12 35/284 20:41 6:40 JOHN LONGTHORNE 60 M TOLEDO
40 7/13 36/284 20:43 6:41 AUSTIN FARNSEL 20 M Berkey
41 5/39 37/284 20:53 6:44 MARK GIBBS 53 M Ottawa Lak
42 6/16 38/284 20:54 6:44 SAM KEYS 16 M Louisville
43 4/32 5/331 20:58 6:45 MEGAN DAVID 20 F Sylvania
44 1/38 6/331 21:00 6:46 HALLIE WILLIAMS 37 F SYLVANIA
45 4/30 39/284 21:00 6:46 JONATHAN ALTLAND 35 M Toledo
46 6/39 40/284 21:05 6:47 JON BAKER 54 M Millbury
47 2/14 41/284 21:06 6:48 NICK TUCKER 13 M Maumee
48 4/31 42/284 21:11 6:49 CRAIG VERHOFF 48 M Maumee
49 6/28 43/284 21:13 6:50 DANIEL EBLE 42 M TOLEDO
50 5/21 44/284 21:14 6:50 JOSHUA MOONEY 25 M Toledo

Happy Trails
Timing and Scoring by Toledo Roadrunners

 

PlaceDiv/TotSex/TotNet TimePaceFirst NameLast NameAgeSexCity
51 5/30 45/284 21:17 6:51 STEVE HALLOCK 35 M toledo
52 1/18 7/331 21:19 6:52 MORGAN DEMBOWSKI 14 F Toledo
53 7/16 46/284 21:20 6:52 JEREMY KEYS 16 M Louisville
54 1/34 8/331 21:21 6:53 MICHELLE BROOKS 46 F Sylvania
55 7/39 47/284 21:22 6:53 DENNIS DELAPP 53 M Sylvania
56 7/28 48/284 21:42 6:59 RAFAEL ANTO RIVERA GALLEGO 43 M Toledo
57 8/16 49/284 21:47 7:01 STEVEN DAVID 18 M Toledo
58 6/21 50/284 21:55 7:04 JUSTIN SCHULER 28 M Toledo
59 1/28 9/331 22:01 7:06 ADRIENNE VAUGHN 29 F Perrysburg
60 2/83 10/331 22:03 7:06 JONI FOOS 32 F Findlay
61 5/31 51/284 22:06 7:07 JOHN WODARSKI JR 45 M Sylvania
62 2/34 11/331 22:22 7:12 AMY CRAFT-AHRENS 47 F BOWLING GRE
63 8/39 52/284 22:26 7:14 RICHARD WALTJEN 51 M Sylvania
64 1/12 12/331 22:27 7:14 JOAN MATHEWS 57 F Maumee
65 6/31 53/284 22:28 7:14 TODD AHRENS 47 M Bowling Gr
66 3/83 54/284 22:29 7:14 CORY KASPRZYK 33 M Bowling Gr
67 6/30 55/284 22:29 7:15 KENNETH BARNSWELL 35 M Toledo
68 1/45 13/331 22:32 7:15 BECKY BEWLE RUSH 43 F Monclova
69 5/32 14/331 22:40 7:18 MAUREEN GIBBS 24 F Ottawa Lak
70 8/28 56/284 22:40 7:18 RICK BRIARS 44 M MAUMEE
71 2/16 15/331 22:40 7:18 HAYLEE VERHOFF 15 F Maumee
72 9/39 57/284 22:41 7:18 DAN REIS 51 M MAUMEE
73 10/39 58/284 22:43 7:19 JOHN CORCORAN 53 M Maumee
74 2/18 16/331 22:46 7:20 TRINITY FOWLER 13 F Northwood
75 1/10 17/331 22:48 7:21 AUBREY DUHAIME 10 F PERRYSBURG
76 3/14 59/284 22:51 7:22 JOSH REITZ 14 M temperance
77 4/83 18/331 22:52 7:22 KELLY NEUNDORFER 34 F Monclova
78 9/16 60/284 23:01 7:25 TYLER GOSSETT 16 M sylvania
79 11/39 61/284 23:03 7:26 MARK KEYS 53 M Louisville
80 10/16 62/284 23:05 7:26 TANNER WHETSEL 16 M Pulaski
81 5/83 63/284 23:05 7:26 MICHAEL DILLON 32 M Waterville
82 9/28 64/284 23:09 7:27 DAN DEMBOWSKI 40 M Toledo
83 3/18 19/331 23:10 7:28 MAGGIE COCHRANE 13 F Maumee
84 7/31 65/284 23:14 7:29 KEITH DUHAIME 47 M PERRYSBURG
85 4/14 66/284 23:21 7:31 MARK DEMBOWSKI 12 M Toledo
86 8/13 67/284 23:26 7:33 ERIC JOHNSON 20 M PERRYSBURG
87 3/12 68/284 23:33 7:35 TERRY KOTALIK 60 M Perrysburg
88 1/14 69/284 23:42 7:38 PHILIP SCHMIDT 66 M whitehouse
89 7/21 70/284 23:45 7:39 ALEX WALCH 26 M Toledo
90 10/28 71/284 23:45 7:39 SCOTT NEUNDORFER 42 M Monclova
91 6/83 72/284 23:48 7:40 JOHN MCMANUS 34 M bowling gr
92 3/34 20/331 23:48 7:40 DIANNA ASHTON 47 F Maumee
93 2/38 21/331 23:50 7:41 STACY CARSON 35 F Bowling Gr
94 7/83 22/331 23:50 7:41 ASHLEY FISHER 31 F Toledo
95 7/30 73/284 23:54 7:42 LUKE ROSEN 35 M Toledo
96 8/30 74/284 23:55 7:42 KEITH WILLINGHAM 36 M Toledo
97 12/39 75/284 23:58 7:43 JAMES ADAMS 52 M SYLVANIA
98 11/28 76/284 24:03 7:45 RODNEY PALMER 43 M B.G
99 9/30 77/284 24:04 7:45 MATTHEW LEUCK 35 M Toledo
100 8/21 78/284 24:04 7:45 LANCE FOOS 25 M Findlay

Happy Trails
Timing and Scoring by Toledo Roadrunners

 

PlaceDiv/TotSex/TotNet TimePaceFirst NameLast NameAgeSexCity
101 13/39 79/284 24:05 7:46 TIM FISHER 51 M Sylvania
102 8/31 80/284 24:07 7:46 ROY GROSSWILER 48 M Grand Rapi
103 10/30 81/284 24:07 7:46 PAUL CZERNIAKOWSKI 36 M Maumee
104 8/83 23/331 24:09 7:47 LINDSEY KONRAD 33 F SYLVANIA
105 1/10 82/284 24:09 7:47 WILLIAM CZERNIAKOWSKI 7 M Maumee
106 3/16 24/331 24:10 7:47 SARA AUBRY 15 F Toledo
107 2/19 83/284 24:12 7:48 TOM KOLENA 56 M Toledo
108 9/31 84/284 24:13 7:48 JIM SPANBAUER 46 M Maumee
109 5/14 85/284 24:16 7:49 MATTHEW GOSSETT 14 M sylvania
110 11/16 86/284 24:16 7:49 JOE DURHAM 16 M Toledo
111 14/39 87/284 24:17 7:49 DAN DURHAM 50 M Toledo
112 4/16 25/331 24:19 7:50 KELSEY SCHERER 19 F Toledo
113 2/28 26/331 24:21 7:50 EMILY GUNDY 29 F Toledo
114 10/31 88/284 24:21 7:50 DAN KLEIN 49 M Toledo
115 9/83 89/284 24:21 7:51 NATHAN HAUPRICHT 30 M Toledo
116 3/38 27/331 24:21 7:51 ANGI PARKS 38 F Toledo
117 10/83 28/331 24:23 7:51 REBECCA GEIB 30 F Perrysburg
118 15/39 90/284 24:24 7:52 ANDY ROGERS 54 M Ottawa Lak
119 6/14 91/284 24:33 7:54 FINN CORCORAN 11 M Maumee
120 12/16 92/284 24:38 7:56 PAUL FISHER 19 M Sylvania
121 16/39 93/284 24:38 7:56 MICHELLEMIC GOSSETT 50 M sylvania
122 11/83 29/331 24:45 7:58 MARCY KOZSEY 32 F Toledo
123 13/16 94/284 24:45 7:58 TREVOR CAMPRADT 15 M Sylvania
124 11/31 95/284 24:46 7:58 PETER AREDDY 47 M maumee
125 4/38 30/331 24:50 8:00 JENELLA HODEL 37 F Toledo
126 12/31 96/284 24:50 8:00 KENNETH CAMPRADT 47 M Sylvania
127 13/31 97/284 24:54 8:01 STEVE EIDE 49 M Toledo
128 12/83 98/284 24:59 8:03 LUCAS SCHWABEL 31 M northwood
129 14/31 99/284 24:59 8:03 DANIEL BEAUDOIN 46 M Luckey
130 4/12 100/284 25:09 8:06 DAVID SLIWINSKI 62 M newport
131 5/38 31/331 25:14 8:08 MINDY KLAWONN 35 F Temperance
132 13/83 101/284 25:15 8:08 CHRISTOPHER BROWN 31 M Toledo
133 9/21 102/284 25:17 8:09 JUTINO COVORRABIAS 29 M TOLEDO
134 14/83 103/284 25:21 8:10 RICH KRAMP 33 M Toedo
135 3/19 104/284 25:21 8:10 CHARLES MAYS 58 M Toledo
136 11/30 105/284 25:34 8:14 TIM ODENWELLER 37 M TOLEDO
137 2/45 32/331 25:35 8:14 LYNNE GOCHENOUR 44 F Toledo
138 6/32 33/331 25:36 8:15 LINDSAY VOLLMAR 23 F Ottawa Hil
139 15/83 106/284 25:40 8:16 WILLIAM BROOKS III 32 M Sylvania
140 12/30 107/284 25:40 8:16 JEREMY LEWIS 36 M Whitehouse
141 12/28 108/284 25:40 8:16 SHANE MCFARLAND 42 M Toledo
142 3/28 34/331 25:42 8:17 MONICA SCHICK 27 F Toledo
143 13/30 109/284 25:43 8:17 AARON KOONTZ 36 M toledo
144 15/31 110/284 25:45 8:18 TOMMY DAVID 46 M Toledo
145 16/83 35/331 25:47 8:18 TARYN KIRK 32 F SYLVANIA
146 13/28 111/284 25:52 8:20 JEFF HEEBSH 44 M Lambertvil
147 17/83 36/331 25:57 8:22 CONNI BAIDEL 33 F toledo
148 3/45 37/331 25:59 8:22 MARINA EDERRA 44 F SYLVANIA
149 14/30 112/284 26:03 8:24 COREY ZACHEL 36 M Perrysburg
150 6/38 38/331 26:04 8:24 CHERYL THOMPSON 35 F Whitehouse

Happy Trails
Timing and Scoring by Toledo Roadrunners

 

PlaceDiv/TotSex/TotNet TimePaceFirst NameLast NameAgeSexCity
151 18/83 113/284 26:06 8:24 JASON CARMONY 30 M Toledo
152 2/14 114/284 26:06 8:25 ALAIN DUPUY 67 M TOLEDO
153 4/28 39/331 26:09 8:25 KRISTIN LONGACRE 28 F Hobart
154 4/18 40/331 26:11 8:26 GRACE AUBRY 13 F Toledo
155 7/14 115/284 26:13 8:27 ROMULUS ARPS 13 M Deshler
156 14/28 116/284 26:14 8:27 MICHAEL AUBRY 44 M Toledo
157 4/45 41/331 26:14 8:27 ISABEL ESCOBAR 41 F Toledo
158 17/39 117/284 26:15 8:27 AVERY COOPER 50 M Toledo
159 5/16 42/331 26:17 8:28 NADEEN SARSOUR 18 F Sylvania
160 8/14 118/284 26:17 8:28 REEGAN ARPS 11 M Deshler
161 6/16 43/331 26:18 8:28 SAMANTHA SIGLER 19 F Sylvania
162 19/83 119/284 26:19 8:29 WAYNE BITTO 34 M Toledo
163 16/31 120/284 26:22 8:29 AARON MASSON 45 M OTTAWA HILL
164 4/19 121/284 26:25 8:31 RICHARD KAVERMAN 59 M Toledo
165 5/19 122/284 26:29 8:32 BILL TAPPER 56 M TOLEDO
166 5/45 44/331 26:30 8:32 ANDREA AREDDY 41 F maumee
167 14/16 123/284 26:31 8:32 DANIEL COX 19 M Toledo
168 20/83 45/331 26:35 8:34 KRISTINA SHULTZ 31 F Bowling Gr
169 17/31 124/284 26:37 8:34 BRIAN REITZ 45 M temperance
170 10/21 125/284 26:39 8:35 ROBERT SCHUSTER 25 M Maumee
171 18/31 126/284 26:40 8:35 GARY PAPROCKI 45 M Sylvania
172 6/19 127/284 26:44 8:37 BRIAN WHITE 59 M Lexington
173 19/31 128/284 26:45 8:37 MATTHEW PLESSNER 49 M northwood
174 7/19 129/284 26:46 8:37 TOM ZELLERS 56 M Maumee
175 18/39 130/284 26:47 8:38 LLOYD PRESNELL 53 M lambertvil
176 1/7 46/331 26:48 8:38 KAY HEINRICHS 67 F Toledo
177 8/19 131/284 26:48 8:38 JOHN COOPER 59 M Ypsilanti
178 21/83 47/331 26:50 8:39 AMANDA BRYANT 33 F Bowling Gr
179 5/28 48/331 26:51 8:39 KIMBERLY YENSER 29 F Holland
180 6/45 49/331 26:54 8:40 RACHEL ISELER 40 F Toledo
181 7/32 50/331 26:55 8:40 HANNAH SALSBURY 24 F metamora
182 5/18 51/331 26:58 8:41 JORDAN SALEH 13 F Maumee
183 15/28 132/284 26:59 8:41 MARC KASPITZKE 44 M Rossford
184 6/28 52/331 26:59 8:42 SHANNON HARRISON 29 F Toledo
185 7/38 53/331 26:59 8:42 ANDREA BORN 36 F Perrysburg
186 5/12 133/284 27:00 8:42 JEFF BASTING 60 M Maumee
187 8/32 54/331 27:02 8:42 KELLY MCLENDON 24 F Toledo
188 7/28 55/331 27:03 8:43 JILL ZAWACKI 29 F Ottawa Lak
189 9/32 56/331 27:03 8:43 JENNIFER DEMARS 23 F Toledo
190 16/28 134/284 27:06 8:44 KAMIL SALEH 42 M Maumee
191 1/29 57/331 27:07 8:44 MELANIE LAGER 50 F Toledo
192 20/31 135/284 27:08 8:44 JOSEPH ZUCHOWSKI 49 M TOLEDO
193 7/16 58/331 27:09 8:45 BAILEY LAKE 16 F Lambertvil
194 22/83 59/331 27:09 8:45 COURTNEY KONIK 33 F Sylvania
195 8/28 60/331 27:10 8:45 SARAH EGGERSTORFER 27 F toledo
196 11/21 136/284 27:11 8:45 JOSH GALATI 27 M Toledo
197 7/45 61/331 27:11 8:45 ANGELA LAVELLE 43 F Eagle
198 23/83 62/331 27:12 8:46 NICOLE RITTER 30 F TOLEDO
199 9/19 137/284 27:14 8:46 DANIEL BARNETT 59 M Toledo
200 4/34 63/331 27:17 8:47 ELAINE SWOPE 47 F Findlay

Happy Trails
Timing and Scoring by Toledo Roadrunners

 

PlaceDiv/TotSex/TotNet TimePaceFirst NameLast NameAgeSexCity
201 6/12 138/284 27:20 8:48 ROBERT OKULSKI 60 M Millbury
202 8/38 64/331 27:22 8:49 SARAH HUEY 37 F Sylvania
203 6/18 65/331 27:23 8:49 KELSEY VERHOFF 12 F Maumee
204 9/28 66/331 27:25 8:50 MELANIE ALDOBAIKI 29 F Findlay
205 21/31 139/284 27:27 8:50 BRENDON JOHNSON 46 M PERRYSBURG
206 8/45 67/331 27:27 8:51 SANDY ZOLLWEG 43 F sylvania
207 2/29 68/331 27:32 8:52 REBECCA ETZINGER 52 F Findlay
208 7/12 140/284 27:36 8:53 THOMAS LYTLE 63 M Whitehouse
209 10/32 69/331 27:36 8:53 EMILY KING 23 F Perrysburg
210 24/83 70/331 27:37 8:54 MEGAN ZAPADKA 32 F Toledo
211 8/12 141/284 27:37 8:54 JOE WEIHER 61 M Northwood
212 25/83 71/331 27:39 8:54 KAREN WHITING 33 F Sylvania
213 1/8 142/284 27:43 8:56 JEFF ACOCKS 70 M Perrysburg
214 26/83 143/284 27:43 8:56 JACOB SCHERER 34 M Toledo
215 2/8 144/284 27:44 8:56 JIM DONALDSON 70 M Sylvania
216 9/45 72/331 27:44 8:56 DAWN WHITAKER 44 F Toledo
217 10/45 73/331 27:44 8:56 HONEY RIZO 44 F Oregon
218 3/29 74/331 27:47 8:57 ANNETTE ROUSOS 50 F Toledo
219 22/31 145/284 27:47 8:57 CHRIS NIHART 47 M Holland
220 3/8 146/284 27:48 8:57 TOM WILES 71 M Perrysburg
221 5/34 75/331 27:49 8:57 KATHY FISHER 49 F Sylvania
222 17/28 147/284 27:49 8:58 DEREK RUSH 42 M Monclova
223 19/39 148/284 27:54 8:59 JOHN ESTELL 52 M Bluffton
224 10/19 149/284 27:57 9:00 TED ROUSOS 56 M Toledo
225 9/38 76/331 27:58 9:00 KRISTI HOEFT 39 F Martin
226 27/83 77/331 27:59 9:01 EMILY CLEMENT 30 F Toledo
227 10/28 78/331 28:00 9:01 KATHERINE CLEMENT 26 F Ottawa Hil
228 28/83 79/331 28:00 9:01 MEREDITH GRAY 34 F Toledo
229 4/8 150/284 28:02 9:02 RICH MARIEH 73 M MAUMEE
230 20/39 151/284 28:06 9:03 JOHN GRAHAM 54 M Toledo
231 15/30 152/284 28:07 9:03 VINCE GREEN 37 M grand rapi
232 11/32 80/331 28:11 9:05 KATARINA TRUSS 21 F Toledo
233 21/39 153/284 28:11 9:05 TROY LANGLEY 50 M Dundee
234 11/45 81/331 28:12 9:05 TERRI WHETSEL 44 F Pulaski
235 10/38 82/331 28:15 9:06 MEGAN GARDAM 37 F Toledo
236 6/34 83/331 28:16 9:06 LORI MILLER 47 F SYLVANIA
237 4/29 84/331 28:19 9:07 KATHY DIDION 54 F perrysburg
238 12/45 85/331 28:19 9:07 HOLLY GERMANA-STANTO 43 F Colorado S
239 3/14 154/284 28:24 9:09 JOHN KROH 69 M PUNXSUTAWNE
240 11/28 86/331 28:28 9:10 JESSICA KNAPP 27 F Whitehouse
241 9/14 155/284 28:32 9:11 TRISTEN TURKOPP 12 M Sylvania
242 12/21 156/284 28:33 9:12 JOEL MIES 27 M Toledo
243 22/39 157/284 28:34 9:12 CHRISTOPHER PARLETTE 51 M Toledo
244 13/45 87/331 28:35 9:12 IRINA ASHTON 44 F PEMBERVILLE
245 18/28 158/284 28:35 9:12 DILLON ASHTON 43 M PEMBERVILLE
246 12/32 88/331 28:36 9:13 ANNA EVANS 24 F Perrysburg
247 13/32 89/331 28:41 9:14 JOELLIE GUTIERREZ 24 F Adrian
248 23/39 159/284 28:42 9:14 JOHN ROBERT 53 M New Boston
249 14/32 90/331 28:46 9:16 KACIE TRUSS 20 F Toledo
250 24/39 160/284 28:47 9:16 STEVIN GROTH 51 M Toledo

Happy Trails
Timing and Scoring by Toledo Roadrunners

 

PlaceDiv/TotSex/TotNet TimePaceFirst NameLast NameAgeSexCity
251 23/31 161/284 28:47 9:16 REGINALD TRUSS 49 M Toledo
252 7/34 91/331 28:51 9:17 PEGGY KURTH - VEGA 45 F Toledo
253 15/32 92/331 28:52 9:18 SAMANTHA ROBERT 22 F New Boston
254 13/21 162/284 28:55 9:19 MATTHEW MURNEN 26 M Toledo
255 9/13 163/284 28:55 9:19 CHRIS LUETTKE 22 M Toledo
256 10/14 164/284 28:58 9:20 CONNOR APPLIN 11 M Toledo
257 12/28 93/331 29:00 9:20 HANNAH BASTING 25 F Maumee
258 16/32 94/331 29:04 9:22 STEPHANIE SHERMAN 23 F HOLLAND
259 7/18 95/331 29:09 9:23 LYDIA APPLIN 13 F Toledo
260 29/83 96/331 29:10 9:24 MINDI WALTON 34 F Toledo
261 8/34 97/331 29:10 9:24 JEANNE NOWICKI 45 F COTTONTOWN
262 25/39 165/284 29:15 9:25 RON SHAFER 53 M LAMBERTVILL
263 10/13 166/284 29:19 9:26 JACOB ROBERT 24 M Lincoln Pa
264 16/30 167/284 29:19 9:26 EDWARD ORDORICA 39 M Sylvania
265 30/83 98/331 29:19 9:26 SARAH EICKHOLT 30 F Perrysburg
266 24/31 168/284 29:25 9:28 DAVE BEJUT 48 M TEMPERANCE
267 9/34 99/331 29:25 9:29 CYNTHIA MALAK 47 F TEMPERANCEM
268 17/30 169/284 29:25 9:29 PAUL MARTIN 38 M Sylvania
269 18/30 170/284 29:27 9:29 CLAUDIO PINO 38 M grand rapi
270 14/45 100/331 29:27 9:29 HONG PARSHALL 40 F Temperance
271 2/10 171/284 29:29 9:30 TIERNAN LOISEL 7 M Sylvania
272 13/28 101/331 29:31 9:30 BARBARA ZINNER 25 F Sylvania
273 10/34 102/331 29:32 9:31 TAMMEY PLESSNER 48 F Northwood
274 11/19 172/284 29:37 9:32 JIM WOLFF 58 M Maumee
275 5/29 103/331 29:37 9:32 ELIZABETH KURTH 50 F KENTWOOD
276 11/38 104/331 29:40 9:33 ROBIN CHLEBOWSKI 39 F Toledo
277 31/83 105/331 29:40 9:33 HAYLEY ERICKSEN 30 F Toledo
278 9/12 173/284 29:40 9:33 TERRY GIBBS 61 M toledo
279 32/83 174/284 29:41 9:33 ADRIAN FOSTER 31 M Maumee
280 19/30 175/284 29:41 9:34 KEITH SCASNY 35 M Toledo
281 10/12 176/284 29:43 9:34 RALPH POOR 61 M TOLEDO
282 8/18 106/331 29:43 9:34 ABI SMALLEY 11 F Maumee
283 11/34 107/331 29:44 9:34 KELLY MEIER 46 F Whitehouse
284 2/7 108/331 29:45 9:35 SHARON PRUETER 65 F Whitehouse
285 33/83 109/331 29:45 9:35 JENNIFER BOLDT 31 F Toledo
286 34/83 110/331 29:45 9:35 CHERYL BROGAN 32 F perrysburg
287 25/31 177/284 29:48 9:36 KEVIN DAVID 48 M Sylvania
288 17/32 111/331 29:49 9:36 MEGHAN SOLTIS 22 F Rossford
289 12/38 112/331 29:51 9:37 ALLISON SARGENT 38 F Bowling Gr
290 18/32 113/331 29:52 9:37 TAYLOR CONLEY 24 F Holland
291 35/83 178/284 29:53 9:37 PATRICK HOGAN 30 M Temperance
292 36/83 114/331 29:53 9:37 SARAH HOGAN 30 F Temperance
293 13/38 115/331 29:55 9:38 LISA MCCOY 37 F WESTON
294 20/30 179/284 29:56 9:38 WILLIAM HAWKINS 35 M Ottawa Lak
295 37/83 180/284 29:56 9:39 TERRY STRODE 32 M Toledo
296 14/38 116/331 29:58 9:39 JODY SMALLEY 39 F Maumee
297 15/45 117/331 30:00 9:40 CHRISTIE ROEHRING 40 F TOLEDO
298 3/10 181/284 30:00 9:40 WILL LAMASTUS 10 M MAUMEE
299 15/38 118/331 30:00 9:40 TRACI SANDS 37 F Sylvania
300 19/28 182/284 30:05 9:41 JASON HAMILTON 43 M Toledo

Happy Trails
Timing and Scoring by Toledo Roadrunners

 

PlaceDiv/TotSex/TotNet TimePaceFirst NameLast NameAgeSexCity
301 6/29 119/331 30:05 9:41 KATHY APPLE 50 F sylvania
302 20/28 183/284 30:07 9:42 MICHAEL LOISEL 42 M Sylvania
303 4/10 184/284 30:07 9:42 DECLAN LOISEL 8 M Sylvania
304 38/83 120/331 30:11 9:43 ERIN LANHAM 32 F Sylvania
305 12/34 121/331 30:11 9:43 MICHELLE WARD 47 F sylvania
306 39/83 122/331 30:12 9:43 BELINDA STRODE 34 F Toledo
307 26/39 185/284 30:14 9:44 TIM KIME 51 M Toledo
308 26/31 186/284 30:14 9:44 TODD KIME 48 M Toledo
309 16/45 123/331 30:17 9:45 SUSAN BAKER 43 F Perrysburg
310 19/32 124/331 30:20 9:46 RACHEL WAGNER 20 F Toledo
311 2/12 125/331 30:22 9:47 DIANE DAMSCHRODER 57 F Helena
312 21/28 187/284 30:24 9:47 ROBERT FLACZYNSKI 44 M Toledo
313 40/83 126/331 30:24 9:47 LEZLIE SCHOLL 32 F Toledo
314 27/31 188/284 30:24 9:48 ROBERT HOLMAN 49 M Lambertvil
315 41/83 127/331 30:25 9:48 ABIGAIL ANTEAU 34 F Temperance
316 42/83 128/331 30:28 9:49 JODI STOIBER 33 F Swanton
317 13/34 129/331 30:28 9:49 KENYA MEEKS 48 F Swanton
318 4/14 189/284 30:28 9:49 WILLIAM GOSLINE 69 M TOLEDO
319 14/28 130/331 30:29 9:49 JESSICA SUTTON 28 F Toledo
320 11/13 190/284 30:32 9:50 NATE TAPPER 22 M Toledo
321 2/10 131/331 30:33 9:50 NORA GOCHENOUR 10 F Toledo
322 15/28 132/331 30:34 9:51 AUDREY TISCHINAE 29 F Toledo
323 11/14 191/284 30:35 9:51 COREY WRIGHT 13 M Toledo
324 21/30 192/284 30:37 9:52 CHRIS SMALLEY 39 M Maumee
325 7/29 133/331 30:40 9:53 MARY ANN JOY 50 F Toledo
326 22/28 193/284 30:43 9:54 CHRIS CRUNKILTON 41 M Toledo
327 14/21 194/284 30:49 9:55 JAMES A. MOLNAR 27 M Oregon
328 5/8 195/284 30:49 9:56 JOHN SAGGESE 70 M Toledo
329 20/32 134/331 30:50 9:56 MONICA LINARES 23 F Ottawa Hil
330 43/83 135/331 30:51 9:56 SARAH OTTNEY 30 F Oregon
331 9/18 136/331 30:52 9:57 ARIANA CALDERONE 12 F Toledo
332 27/39 196/284 30:56 9:58 PHIL NELSON 53 M Toledo
333 14/34 137/331 30:56 9:58 TERESA NOWICKI 46 F Portland
334 28/39 197/284 31:00 9:59 JIM WRIGHT 51 M Toledo
335 29/39 198/284 31:01 9:59 SCOTT LOCKHART 52 M Temperance
336 44/83 199/284 31:03 10:00 JOSHUA SCHIEB 31 M TEMPERANCE
337 8/16 138/331 31:04 10:00 IZZY HORST 16 F Lambertvil
338 10/18 139/331 31:05 10:01 FAITH BRIARS 12 F Maumee
339 11/18 140/331 31:13 10:03 KAITLIN LUTHER 14 F MAUMEE
340 3/12 141/331 31:26 10:07 MELANIE DICKERSON 56 F SYLVANIA
341 45/83 142/331 31:27 10:08 KIMBERLY MUMMA 34 F Toledo
342 8/29 143/331 31:29 10:08 CINDY TABNER 52 F toledo
343 9/29 144/331 31:29 10:08 NANCY GAUGER 53 F Toledo
344 16/28 145/331 31:30 10:09 YOLANDA MIES 29 F Toledo
345 12/19 200/284 31:32 10:09 TOBY MCDOUGLE 57 M Oregon
346 5/14 201/284 31:34 10:10 THOMAS SHERMAN 66 M HOLLAND
347 46/83 146/331 31:35 10:10 KELLY PLATH 31 F Toledo
348 6/8 202/284 31:36 10:11 JAMES LAGGER 74 M PERRYSBURG
349 3/10 147/331 31:37 10:11 ISABELLE GREENE 10 F Genoa
350 12/18 148/331 31:37 10:11 ASHLEY GREENE 13 F Genoa

Happy Trails
Timing and Scoring by Toledo Roadrunners

 

PlaceDiv/TotSex/TotNet TimePaceFirst NameLast NameAgeSexCity
351 9/16 149/331 31:38 10:11 SARA TURNERSMITH 18 F Toledo
352 17/45 150/331 31:38 10:11 TINA BRIARS 44 F Maumee
353 6/14 203/284 31:41 10:12 ROBERT TRUMBLY 65 M Toledo
354 16/38 151/331 31:47 10:14 MARIA HERMAN 35 F Toledo
355 47/83 204/284 31:47 10:14 JORDAN ROFKAR 33 M Toledo
356 15/21 205/284 31:47 10:14 RUSSELL FRIEDRICH 28 M Lakewood
357 15/34 152/331 31:49 10:15 MARY JO BICANOVSKY 49 F sylvania
358 22/30 206/284 31:49 10:15 AMY THOMPSON 39 M TOLEDO
359 18/45 153/331 31:50 10:15 HELEN MABRY 43 F MAUMEE
360 7/14 207/284 31:52 10:16 BILL BEARD 67 M Ottawa Lak
361 17/28 154/331 31:52 10:16 ALLISON KLEIN 25 F TOLEDO
362 19/45 155/331 31:53 10:16 BROOKE KEEFER 43 F Swanton
363 48/83 156/331 31:54 10:16 LINDSEY FRIEDRICH 30 F Lakewood
364 20/45 157/331 31:54 10:16 KELLY RISTER 41 F toledo
365 18/28 158/331 32:00 10:18 LISA MYERS 26 F SWANTON
366 21/45 159/331 32:02 10:19 MELANIE DUSSEAU 41 F TOLEDO
367 30/39 208/284 32:06 10:20 GRANT HENDERSON 50 M TOLEDO
368 1/4 160/331 32:08 10:21 MARIE SUKALO 60 F TOLEDO
369 19/28 161/331 32:10 10:21 LINDSAY EATON 28 F Toledo
370 10/29 162/331 32:11 10:22 LYNN MACKINNON 53 F TOLEDO
371 23/30 209/284 32:14 10:23 DOUGLAS STURTZ 35 M Toledo
372 49/83 210/284 32:16 10:24 CASEY GIBSON 30 M Toledo
373 22/45 163/331 32:21 10:25 JILL MOLNAR 44 F Maumee
374 13/19 211/284 32:22 10:25 JERRY NORTON 59 M LAMBERTVILL
375 12/13 212/284 32:24 10:26 GARY LANGE 23 M Monroe
376 31/39 213/284 32:24 10:26 MICHAEL OSBORN 50 M Toledo
377 17/38 164/331 32:26 10:27 ROBLYN SKIBINSKI 36 F toledo
378 20/28 165/331 32:30 10:28 LISA VOLAND 28 F TOLEDO
379 21/32 166/331 32:31 10:28 NATALIE ROGERS 23 F South Rock
380 32/39 214/284 32:31 10:28 ERIC BRITTON 54 M Toledo
381 18/38 167/331 32:32 10:28 LISA BOWE 37 F Perrysburg
382 16/21 215/284 32:34 10:29 REESE BROSSIA 25 M Luckey
383 22/32 168/331 32:34 10:29 SARA HUDSON 22 F Bowling Gr
384 23/32 169/331 32:34 10:29 JESSICA TURNER-SMITH 23 F TOLEDO
385 24/32 170/331 32:34 10:29 EMILY BROWN 24 F Toledo
386 23/28 216/284 32:35 10:30 JEREMY KOSTER 42 M Jasper
387 23/45 171/331 32:36 10:30 BRANDY BOUYER 41 F Toledo
388 24/45 172/331 32:37 10:30 JENNIFER KINN 44 F Holland
389 16/34 173/331 32:39 10:31 KIM BAER 46 F Sylvania
390 12/14 217/284 32:39 10:31 JUSTIN BAER 12 M Sylvania
391 19/38 174/331 32:53 10:35 LAURA ECKEL 36 F Sylvania
392 25/45 175/331 32:53 10:35 KATHY FENLEY 42 F Lakewood
393 24/28 218/284 32:54 10:36 BRYAN PESCHEL 44 M Toledo
394 50/83 176/331 33:01 10:38 LORI SCHWABEL 32 F Northwood
395 11/29 177/331 33:08 10:40 JENNIFER VELLEQUETTE 51 F Holland
396 17/34 178/331 33:11 10:41 LISA BRAZEAU 45 F swanton
397 51/83 179/331 33:11 10:41 JILL BONNOUGH 32 F Toledo
398 26/45 180/331 33:13 10:42 SUSAN CROY 41 F OTTAWA HILL
399 52/83 181/331 33:13 10:42 KIM GROVE 34 F Temperance
400 28/31 219/284 33:14 10:42 VICTOR LYNCH 48 M Monroe

Happy Trails
Timing and Scoring by Toledo Roadrunners

 

PlaceDiv/TotSex/TotNet TimePaceFirst NameLast NameAgeSexCity
401 53/83 220/284 33:14 10:42 ANDY GROVE 31 M Temperance
402 18/34 182/331 33:14 10:42 VICKI LYNCH 47 F Monroe
403 33/39 221/284 33:17 10:43 DONALD MACKINNON 51 M TOLEDO
404 20/38 183/331 33:18 10:43 JULIE DESAUTELS 36 F OH
405 54/83 184/331 33:30 10:47 KATE KOESTER 34 F Walbridge
406 12/29 185/331 33:31 10:48 CAROL MOONEY 51 F Toledo
407 21/38 186/331 33:32 10:48 JODY HARTZELL 38 F Perrysburg
408 27/45 187/331 33:46 10:53 ANN BENGELA 43 F Toledo
409 55/83 222/284 33:47 10:53 TYLER STANLEY 30 M Toledo
410 56/83 188/331 33:58 10:56 KRISTIN WEEMAN 34 F DUNDEE
411 19/34 189/331 33:58 10:56 DE-LITE CARSON-MCKEE 46 F LAMBERTVILL
412 13/29 190/331 33:59 10:57 PEGGY MYERS 53 F SWANTON
413 57/83 191/331 34:08 10:59 AMY BITTO 32 F Toledo
414 58/83 192/331 34:11 11:01 ALEXIS OSTROWSKI 32 F Maumee
415 14/29 193/331 34:12 11:01 MICHELE DECANT 52 F SANTA BARB
416 5/10 223/284 34:12 11:01 WADE LAMASTUS 10 M MAUMEE
417 13/14 224/284 34:13 11:01 DEXTER RUSH 11 M Monclova
418 4/12 194/331 34:13 11:01 MARY MC NAMARA 55 F TOLEDO
419 8/14 225/284 34:19 11:03 JOHN JUVINALL 68 M Ottawa Lak
420 15/29 195/331 34:22 11:04 CYNTHIA LANG 50 F Toledo
421 20/34 196/331 34:24 11:05 STEPHANIE HAWS 47 F Toledo
422 59/83 197/331 34:25 11:05 ESTHER O'CONNEL 32 F Toledo
423 28/45 198/331 34:29 11:06 ANN MARIE MUSTO 43 F Toledo
424 24/30 226/284 34:30 11:07 OLUGBENGA AJILORE 39 M Toledo
425 6/10 227/284 34:32 11:07 JACK SAGGESE 10 M Toledo
426 17/21 228/284 34:36 11:08 STEVEN PARPART 25 M Novi
427 21/34 199/331 34:37 11:09 DELINDA LAGINESS 48 F Temperance
428 29/45 200/331 34:37 11:09 CRISTINA WHITMORE 44 F Toledo
429 25/30 229/284 34:38 11:09 TRENT MAHANEY 37 M Oregon
430 7/8 230/284 34:51 11:13 CARL ANDERSON 72 M Monclova
431 30/45 201/331 34:52 11:14 CONNIE SPITZNAUGLE 40 F Toledo
432 22/34 202/331 34:55 11:15 EVANGELINE GILLESPIE 49 F Toledo
433 22/38 203/331 35:05 11:18 SARAH GOODNOUGH 37 F Sylvania
434 60/83 204/331 35:07 11:19 REBECCA HORNER 32 F GEROGETOWN
435 16/29 205/331 35:10 11:19 JENNY BARLOS 52 F Maumee
436 5/12 206/331 35:12 11:20 CAROL FORBES 56 F Wauseon
437 18/21 231/284 35:13 11:20 KORY KOEPFER 29 M Toledo
438 13/18 207/331 35:21 11:23 SOPHIE WILSON 12 F Toledo
439 10/16 208/331 35:21 11:23 SYDNEE DUPLER 16 F Toledo
440 4/10 209/331 35:26 11:25 GIA SAGGESE 7 F Toledo
441 9/14 232/284 35:29 11:26 RONALD MOENING 66 M Toledo
442 29/31 233/284 35:40 11:29 ANTHONY SLOMA 46 M Sylvania
443 21/28 210/331 35:47 11:31 RACHEL MAURER 29 F Toledo
444 14/18 211/331 35:50 11:32 HELEN SAGGESE 13 F Toledo
445 14/19 234/284 35:50 11:33 FRANK ARMSTEAD 57 M Toledo
446 31/45 212/331 35:55 11:34 COLLEEN PERRINE 43 F Toledo
447 23/38 213/331 35:58 11:35 NICOLA NEWMAN-KURTZ 36 F Toledo
448 10/14 235/284 36:04 11:37 CHRIS CONROY 65 M Maumee
449 61/83 214/331 36:05 11:37 JILLIAN LEWIS 30 F Toledo
450 11/16 215/331 36:10 11:39 SAMANTHA VELLEQUETTE 19 F Holland

Happy Trails
Timing and Scoring by Toledo Roadrunners

 

PlaceDiv/TotSex/TotNet TimePaceFirst NameLast NameAgeSexCity
451 62/83 216/331 36:14 11:40 HEATHER CAMPBELL 31 F Millbury
452 22/28 217/331 36:14 11:40 KATIE GRINONNEAU 28 F Toledo
453 25/28 236/284 36:16 11:41 KURT NOWICKI 44 M COTTONTOWN
454 32/45 218/331 36:16 11:41 AMY HAINES 42 F Whitehouse
455 63/83 219/331 36:18 11:41 KELLY WHITE 33 F Toledo
456 33/45 220/331 36:25 11:44 KRISTY VALLEROY 42 F Northwood
457 25/32 221/331 36:35 11:47 LAUREN MCCAFFERTY 22 F Toledo
458 64/83 222/331 36:40 11:49 JEN SORGENFREI 33 F Toledo
459 7/10 237/284 36:44 11:50 NOLAN SADOWSKI 8 M Maumee
460 11/14 238/284 36:44 11:50 RICHARD MIESLE 66 M Perrysburg
461 65/83 223/331 36:45 11:50 KELLY SADOWSKI 33 F Maumee
462 66/83 224/331 36:46 11:50 ABIGAIL STARKEY 32 F SYLFANIA
463 15/18 225/331 37:04 11:56 SYDNEY LAKE 13 F Lambertvil
464 34/39 239/284 37:06 11:57 JAMES LANG 52 M Toledo
465 26/28 240/284 37:07 11:57 NEAL APPLIN 42 M Toledo
466 15/19 241/284 37:13 11:59 MIKE PRIEHS 58 M Whitehouse
467 67/83 242/284 37:13 11:59 MIKE PRIEHS 34 M Bowling Gr
468 16/18 226/331 37:23 12:02 LENA GOCHENOUR 13 F Toledo
469 34/45 227/331 37:24 12:02 KAMARIA PARKER 40 F Toledo
470 17/18 228/331 37:24 12:03 KACIE MOREY 12 F Toledo
471 17/29 229/331 37:27 12:03 HEATHER BURKE 52 F Waterville
472 12/16 230/331 37:29 12:04 NIKKI VELLEQUETTE 15 F Holland
473 24/38 231/331 37:29 12:04 REBECCA ALPERIN 38 F Toledo
474 18/29 232/331 37:30 12:05 REBECCA KACZMAREK 52 F toledo
475 25/38 233/331 37:31 12:05 ALANA MALIK 38 F Sylvania
476 19/21 243/284 37:33 12:06 MIKE GADUS 29 M Toledo
477 26/32 234/331 37:34 12:06 SARA AL-SORGHALI 23 F Toledo
478 23/28 235/331 37:36 12:06 NORA ALFAHAM 26 F Sylvania
479 26/30 244/284 37:48 12:10 DAVE MOREY 36 M Toledo
480 8/10 245/284 38:15 12:19 TIMOTHY WILLOUGHBY 6 M TEMPERANCE
481 6/12 236/331 38:17 12:20 CINDY DEBLAIR 58 F Monroe
482 19/29 237/331 38:18 12:20 DEANA WASNER 53 F Monroe
483 26/38 238/331 38:26 12:23 JESSICA BROZ 35 F Toledo
484 27/38 239/331 38:27 12:23 LISA SMITH 38 F TOLEDO
485 1/3 246/284 38:39 12:27 THOMAS M FALVEY 77 M SYLVANIA
486 5/10 240/331 38:40 12:27 AVA SAGGESE 7 F Toledo
487 68/83 247/284 38:56 12:32 ERIC STRAYER 30 M TOLEDO
488 12/14 248/284 39:17 12:39 RODNEY WHETSEL 65 M Toledo
489 23/34 241/331 39:22 12:41 HOLLY VERHOFF 45 F Maumee
490 27/32 242/331 39:31 12:43 MARISELLA WHITMORE 20 F TOLEDO
491 35/45 243/331 39:34 12:45 CHERYL POCINO 41 F Toledo
492 7/12 244/331 40:04 12:54 MARY GORMAN 58 F TOLEDO
493 36/45 245/331 40:11 12:56 STACY MASSEY 40 F holland
494 37/45 246/331 40:22 13:00 LISA MOFFITT 41 F Jasper
495 69/83 247/331 41:04 13:14 KERRY KOSTER 33 F Dunn
496 70/83 248/331 41:05 13:14 LAUREN ANDERSON 33 F Toledo
497 8/8 249/284 41:15 13:17 TOM ALTHOFF 73 M SYLVANIA
498 24/28 249/331 41:18 13:18 EMILY MYERS 28 F SWANTON
499 20/29 250/331 41:20 13:19 ROBIN DUFFIN 53 F Erie
500 24/34 251/331 41:21 13:19 LORI OEHLERS 45 F Toledo

Happy Trails
Timing and Scoring by Toledo Roadrunners

 

PlaceDiv/TotSex/TotNet TimePaceFirst NameLast NameAgeSexCity
501 71/83 252/331 41:45 13:27 CANDICE FOURNIER 32 F Sylvania
502 25/28 253/331 41:46 13:27 HARMONY BRYAN 29 F Toledo
503 21/29 254/331 41:50 13:28 GINA GANGWAY 50 F Sylvania
504 35/39 250/284 41:50 13:28 TIMOTHY GANGWAY 50 M Sylvania
505 8/12 255/331 41:53 13:29 MICHELE STEVENSON 56 F Toledo
506 25/34 256/331 41:55 13:30 SUZANNE HOPES TRUSS 48 F Toledo
507 28/38 257/331 41:58 13:31 JENNIFER PIZIO 39 F toledo
508 26/34 258/331 41:59 13:31 LAURIE DOMBI 49 F Oregon
509 29/38 259/331 42:15 13:36 JOAN HALLETT 35 F Swanton
510 30/38 260/331 42:16 13:37 MARIA UERKWITZ 39 F Toledo
511 27/30 251/284 42:42 13:45 CHAD BAKER 38 M perrysburg
512 13/16 261/331 42:56 13:49 JESSICA RUETZ 18 F Ottawa Lak
513 13/14 252/284 42:58 13:50 BUSTER CONRAD 66 M Toledo
514 38/45 262/331 42:59 13:50 GRACIE CONRAD 42 F Toledo
515 26/28 263/331 43:14 13:55 TABBITHA ESTEP 26 F Perrysburg
516 72/83 253/284 43:18 13:56 BEN BRUNN 30 M Toledo
517 39/45 264/331 43:57 14:09 ANN SALSBURY 44 F metamora
518 22/29 265/331 43:57 14:09 DENISE POOR 51 F TOLEDO
519 73/83 254/284 44:08 14:12 JOSHUA ANDERSON 34 M Toledo
520 36/39 255/284 44:56 14:28 JOHN LONGMORE 50 M TOLEDO
521 23/29 266/331 44:57 14:28 BRENDA LONGMORE 51 F TOLEDO
522 15/16 256/284 44:57 14:28 DREW LONGMORE 15 M TOLEDO
523 27/28 257/284 45:18 14:35 TODD TUCKER 40 M Maumee
524 6/10 267/331 45:23 14:37 ABBY TUCKER 10 F Maumee
525 9/12 268/331 45:46 14:44 NANCY KELLER 57 F TOLEDO
526 27/28 269/331 45:56 14:47 RACHEL BROOKS 29 F Perrysburg
527 3/7 270/331 46:03 14:50 GENIE WILES 67 F Perrysburg
528 14/16 271/331 46:12 14:52 EMILY SCHOENFELT 19 F Waterville
529 13/13 258/284 46:13 14:53 DREW PALERMO 20 M Waterville
530 30/31 259/284 46:16 14:54 DAVID VERNIER 46 M sylvania
531 27/34 272/331 46:16 14:54 TERRI VERNIER 48 F sylvania
532 74/83 273/331 46:17 14:54 SHANNON ANDERSON 32 F Toledo
533 24/29 274/331 46:45 15:03 RENEE RUETZ 50 F Ottawa Lak
534 20/21 260/284 47:20 15:14 RYAN SCHWAB 25 M Sylvania
535     47:21 15:15 CAITLIN SCHWAB     Sylvania
536 2/3 261/284 47:42 15:21 JAMES FAGERSTROM 75 M Perrysburg
537 14/14 262/284 47:44 15:22 RICH NACHAZEL 65 M Toledo
538 28/30 263/284 47:51 15:24 BRANDON ARPS 39 M Deshler
539 18/18 275/331 48:53 15:44 KALEIGH CARSON 12 F Ottawa Hil
540 28/34 276/331 48:55 15:45 SUSAN CARSON 46 F Ottawa Hil
541 9/10 264/284 49:09 15:49 KEVIN BLACK 9 M HOLLAND
542 29/34 277/331 49:23 15:54 NATASHA HUSSAIN 45 F Holland
543 40/45 278/331 49:35 15:58 STEPHANIE MAHONEY 41 F Toledo
544 31/38 279/331 49:36 15:58 MAGEE WILSON 35 F Toledo
545 75/83 280/331 49:38 15:59 AMANDA GRIFFIN 32 F Toledo
546 76/83 265/284 49:40 16:00 JOHN COBB 32 M Toledo
547 10/12 281/331 49:48 16:02 KAREN MCCUTCHEON 59 F perrysburg
548 29/30 266/284 50:05 16:07 ANDREW ARCHER 37 M Maumee
549 41/45 282/331 50:05 16:08 TISHA BARFELL 42 F Maumee
550 2/4 283/331 50:06 16:08 VICKY GRIGGS 63 F Swanton

Happy Trails
Timing and Scoring by Toledo Roadrunners

 

PlaceDiv/TotSex/TotNet TimePaceFirst NameLast NameAgeSexCity
551 11/12 267/284 50:07 16:08 RUSSELL GRIGGS 63 M Swanton
552 77/83 284/331 50:15 16:11 JESSICA PRIEHS 32 F Whitehouse
553 7/10 285/331 50:17 16:11 AUGUST SIMON 9 F toledo
554 30/34 286/331 50:22 16:13 MELISSA SIMON 46 F toledo
555 25/29 287/331 51:15 16:30 JULIA GIBBS 54 F Ottawa Lak
556 16/16 268/284 51:33 16:36 JACOB RABE 15 M Waterville
557 16/19 269/284 51:40 16:38 JOHN TROTOGOT 55 M Waterville
558 32/38 288/331 51:57 16:44 MELISSA ZIELINSKI 39 F Hollande
559 26/29 289/331 51:58 16:44 TERRY MILLER 53 F Rossford
560 15/16 290/331 51:58 16:44 KENNEDY BUDD 19 F TOLEDO
561 42/45 291/331 51:58 16:44 JILL O'HARA 43 F TOLEDO
562 21/21 270/284 53:13 17:08 MATTHEW MCFALL 28 M Toledo
563 28/32 292/331 53:14 17:08 COURTNEY ARMER 22 F Toledo
564 4/7 293/331 53:34 17:15 PEGGY THOMAS 67 F Toledo
565 43/45 294/331 53:35 17:15 LISA TROTOGOT 42 F Waterville
566 27/29 295/331 53:46 17:19 JACKLYN TAPPER 53 F Toledo
567 8/10 296/331 54:09 17:26 ANNELISE SLOMA 7 F Sylvania
568 31/34 297/331 54:14 17:28 PAIGE SLOMA 46 F Sylvania
569 30/30 271/284 54:31 17:33 CHRIS BRAY 35 M Perrysburg
570 17/19 272/284 54:31 17:33 DONALD BRAY 57 M Perrysburg
571 18/19 273/284 54:33 17:34 TERRY KING 55 M Perrysburg
572 28/29 298/331 54:34 17:34 SHELLEY KING 54 F Perrysburg
573 78/83 299/331 54:51 17:40 NICOLE TERDOEST 31 F Toledo
574 9/10 300/331 54:52 17:40 RHIANA ARPS 4 F Deshler
575 33/38 301/331 54:54 17:40 SARAH ARPS 39 F Deshler
576 1/1 302/331 54:56 17:41 BARB KIME 76 F Toledo
577 11/12 303/331 54:56 17:41 KATHI HOGAN 55 F Temperance
578 12/12 304/331 54:57 17:41 PATTY JOHNSON 55 F Sylvania
579 32/34 305/331 55:03 17:44 NANCY KIME 49 F Toledo
580 5/7 306/331 55:09 17:45 KATHLEEN ATTWOOD 69 F Perrysburg
581 6/7 307/331 55:09 17:45 MELINDA GARWOOD 69 F Perrysburg
582 14/14 274/284 55:22 17:50 GAGE THOMPSON 12 M Toledo
583 3/4 308/331 55:25 17:50 PAULA STEINKER 64 F BOWLING GR
584 31/31 275/284 55:26 17:51 KEVIN THOMPSON 48 M Toledo
585 10/10 276/284 55:50 17:59 WESLEY HARRISON 1 M Toledo
586 79/83 277/284 55:50 17:59 BRANDON HARRISON 30 M Toledo
587 34/38 309/331 56:08 18:04 TRISHA WOLKINS 37 F SYLVANIA
588 80/83 310/331 56:08 18:05 LINDSAY GRIFFIN 34 F Toledo
589 29/32 311/331 56:17 18:07 TORI SENTLE 20 F Monroe
590 30/32 312/331 56:18 18:08 RACHAEL CROSBY 20 F Carleton
591 7/7 313/331 56:22 18:09 KAREN CONNORS 67 F Toledo
592 28/28 278/284 56:22 18:09 DAN NAYFACK 43 M Toledo
593 19/19 279/284 57:09 18:24 JEFF YOST 57 M WAPAKONETA
594 35/38 314/331 57:10 18:24 RACHEL VAIL 38 F Toledo
595 36/38 315/331 57:12 18:25 JENNIFER MCCLURE 37 F Toledo
596 33/34 316/331 57:14 18:26 MARY PAYNE 45 F Mt. Morris
597 4/4 317/331 57:45 18:36 PATTI GARDNER 60 F sylvania
598 12/12 280/284 57:46 18:36 DENNIS GARDNER 62 M sylvania
599 37/39 281/284 59:11 19:03 KEVIN BLACK 51 M Holland
600 3/3 282/284 59:25 19:08 S. AMJAD HUSSAIN 77 M Maumee

Happy Trails
Timing and Scoring by Toledo Roadrunners

 

PlaceDiv/TotSex/TotNet TimePaceFirst NameLast NameAgeSexCity
601 38/39 283/284 1:06:39 21:27 STEVEN SUDETH 52 M Toledo
602 29/29 318/331 1:06:49 21:31 PAMELA SUDETH 50 F Toledo
603 44/45 319/331 1:07:54 21:52 JENNIFER POTTS 43 F Rossford
604 31/32 320/331 1:07:55 21:52 JESSICA ECKENRODE 23 F Toledo
605 16/16 321/331 1:08:44 22:08 LIZ SWANSON 16 F Ypsilanti
606 10/10 322/331 1:08:45 22:08 EMILY SWANSON 8 F Ypsilanti
607 81/83 323/331 1:09:34 22:24 JENNIFER SWANSON 34 F Ypsilanti
608 28/28 324/331 1:09:34 22:24 EMILY FRIEDLINE 29 F Monroe
609 37/38 325/331 1:09:36 22:25 ANGELA SMITHERS 36 F Monroe
610 38/38 326/331 1:09:36 22:25 SARAH SVIHLIK 37 F Indianapol
611 39/39 284/284 1:09:37 22:25 WAYNE MCCREARY 51 M Monroe
612 32/32 327/331 1:09:37 22:25 BRITTANY VALLADE 24 F Monroe
613 82/83 328/331 1:09:38 22:25 KEELY VORVA 33 F Monroe
614 45/45 329/331 1:09:38 22:25 CLARISSA THORNTON 42 F Monore
615 34/34 330/331 1:09:39 22:26 MICHELE O'NEILL 49 F Toledo
616 83/83 331/331 1:13:46 23:45 KATHERINE BIBISH 30 F Toledo

********** AWARDS LIST **************

********** FEMALE OVERALL RESULTS ***********

1 BROOKE TULLIS 22 MAUMEE OH 17:53
2 KRISTAL STUDER 24 TOLEDO OH 18:27
3 ALEX WAINSTEIN 18 Toledo OH 19:31

********** MALE OVERALL RESULTS ***********

1 EVAN GAYNOR 26 Perrysburg OH 15:38
2 GEOFFREY KIPROTICH 34 SYLVANIA OH 15:53
3 JONATHAN DEWITT 24 TOLEDO OH 16:00

********** FEMALE MASTERS RESULTS ***********

1 MICHELLE BROOKS 46 Sylvania OH 21:21

********** MALE MASTERS RESULTS ***********

1 HENRY MALDONADO 49 TOLEDO OH 17:28

FEMALE AGE GROUP 1 - 9

1 440 GIA SAGGESE 7 Toledo OH 35:26
2 486 AVA SAGGESE 7 Toledo OH 38:40
3 553 AUGUST SIMON 9 toledo OH 50:17

MALE AGE GROUP 1 - 9

1 105 WILLIAM CZERNIAKOWSKI 7 Maumee OH 24:09
2 271 TIERNAN LOISEL 7 Sylvania OH 29:29
3 303 DECLAN LOISEL 8 Sylvania OH 30:07

FEMALE AGE GROUP 10 - 14

1 52 MORGAN DEMBOWSKI 14 Toledo OH 21:19
2 74 TRINITY FOWLER 13 Northwood OH 22:46
3 75 AUBREY DUHAIME 10 PERRYSBURG OH 22:48

MALE AGE GROUP 10 - 14

1 26 SEAN HOEFT 13 Martin OH 19:49
2 47 NICK TUCKER 13 Maumee OH 21:06
3 76 JOSH REITZ 14 temperance MI 22:51

FEMALE AGE GROUP 15 - 19

1 71 HAYLEE VERHOFF 15 Maumee OH 22:40
2 106 SARA AUBRY 15 Toledo OH 24:10
3 112 KELSEY SCHERER 19 Toledo OH 24:19

MALE AGE GROUP 15 - 19

1 6 DREW SAVAGE 19 SYLVANIA OH 16:54
2 20 BEN NEWMAN 18 TOLEDO OH 19:14
3 22 ROBERT BROGAN 17 Toledo OH 19:28

FEMALE AGE GROUP 20 - 24

1 29 LIZ LEMON 21 BOWLING GRE OH 19:53
2 43 MEGAN DAVID 20 Sylvania OH 20:58
3 69 MAUREEN GIBBS 24 Ottawa Lak MI 22:40

MALE AGE GROUP 20 - 24

1 5 JACOB BARNES 22 Toledo OH 16:54
2 11 JOHN WOODARKSI III 21 Sylvania OH 18:05
3 13 DAN RICHIE 22 SYLVANIA OH 18:32

FEMALE AGE GROUP 25 - 29

1 59 ADRIENNE VAUGHN 29 Perrysburg OH 22:01
2 113 EMILY GUNDY 29 Toledo OH 24:21
3 142 MONICA SCHICK 27 Toledo OH 25:42

MALE AGE GROUP 25 - 29

1 18 NEIL FLANNER 29 TOLEDO OH 18:57
2 33 KWAKU KANKAM 29 FT LAUDERDA FL 20:31
3 35 BRIAN ROESSNER 29 Toledo OH 20:32

FEMALE AGE GROUP 30 - 34

1 60 JONI FOOS 32 Findlay OH 22:03
2 77 KELLY NEUNDORFER 34 Monclova OH 22:52
3 94 ASHLEY FISHER 31 Toledo OH 23:50

MALE AGE GROUP 30 - 34

1 66 CORY KASPRZYK 33 Bowling Gr OH 22:29
2 81 MICHAEL DILLON 32 Waterville OH 23:05
3 91 JOHN MCMANUS 34 bowling gr OH 23:48

FEMALE AGE GROUP 35 - 39

1 44 HALLIE WILLIAMS 37 SYLVANIA OH 21:00
2 93 STACY CARSON 35 Bowling Gr OH 23:50
3 116 ANGI PARKS 38 Toledo OH 24:21

MALE AGE GROUP 35 - 39

1 4 EDWARD KORIR 35 TOLEDO OH 16:11
2 9 KEVIN EGAN 38 TOLEDO OH 17:50
3 17 KEN CORCORAN 37 Sylvania OH 18:52

FEMALE AGE GROUP 40 - 44

1 68 BECKY BEWLE RUSH 43 Monclova OH 22:32
2 137 LYNNE GOCHENOUR 44 Toledo OH 25:35
3 148 MARINA EDERRA 44 SYLVANIA OH 25:59

MALE AGE GROUP 40 - 44

1 8 STEVE HART 42 Toledo OH 17:34
2 16 TODD GERMANA 40 Sylvania OH 18:50
3 24 SEAN SAVAGE 43 SYLVANIA OH 19:34

FEMALE AGE GROUP 45 - 49

1 62 AMY CRAFT-AHRENS 47 BOWLING GRE OH 22:22
2 92 DIANNA ASHTON 47 Maumee OH 23:48
3 200 ELAINE SWOPE 47 Findlay OH 27:17

MALE AGE GROUP 45 - 49

1 15 WESLEY MCKEE 46 lambertvil MI 18:43
2 21 TOM SILVA 46 Maumee OH 19:21
3 48 CRAIG VERHOFF 48 Maumee OH 21:11

FEMALE AGE GROUP 50 - 54

1 191 MELANIE LAGER 50 Toledo OH 27:07
2 207 REBECCA ETZINGER 52 Findlay OH 27:32
3 218 ANNETTE ROUSOS 50 Toledo OH 27:47

MALE AGE GROUP 50 - 54

1 19 JOE BAKER 52 Millbury OH 19:05
2 28 CRAIG SWOPE 51 Findlay OH 19:53
3 30 TIMOTHY MOONEY 54 Toledo OH 20:13

FEMALE AGE GROUP 55 - 59

1 64 JOAN MATHEWS 57 Maumee OH 22:27
2 311 DIANE DAMSCHRODER 57 Helena OH 30:22
3 340 MELANIE DICKERSON 56 SYLVANIA OH 31:26

MALE AGE GROUP 55 - 59

1 32 ED OSBORNE 59 Toledo OH 20:24
2 107 TOM KOLENA 56 Toledo OH 24:12
3 135 CHARLES MAYS 58 Toledo OH 25:21

FEMALE AGE GROUP 60 - 64

1 368 MARIE SUKALO 60 TOLEDO OH 32:08
2 550 VICKY GRIGGS 63 Swanton OH 50:06
3 583 PAULA STEINKER 64 BOWLING GR OH 55:25

MALE AGE GROUP 60 - 64

1 25 SAM TORRES 61 Toledo OH 19:38
2 39 JOHN LONGTHORNE 60 TOLEDO OH 20:41
3 87 TERRY KOTALIK 60 Perrysburg OH 23:33

FEMALE AGE GROUP 65 - 69

1 176 KAY HEINRICHS 67 Toledo OH 26:48
2 284 SHARON PRUETER 65 Whitehouse OH 29:45
3 527 GENIE WILES 67 Perrysburg OH 46:03

MALE AGE GROUP 65 - 69

1 88 PHILIP SCHMIDT 66 whitehouse OH 23:42
2 152 ALAIN DUPUY 67 TOLEDO OH 26:06
3 239 JOHN KROH 69 PUNXSUTAWNE PA 28:24

FEMALE AGE GROUP 70 - 74

 

MALE AGE GROUP 70 - 74

1 213 JEFF ACOCKS 70 Perrysburg OH 27:43
2 215 JIM DONALDSON 70 Sylvania OH 27:44
3 220 TOM WILES 71 Perrysburg OH 27:48

FEMALE AGE GROUP 75 - 99

1 576 BARB KIME 76 Toledo OH 54:56

MALE AGE GROUP 75 - 99

1 485 THOMAS M FALVEY 77 SYLVANIA OH 38:39
2 536 JAMES FAGERSTROM 75 Perrysburg OH 47:42
3 600 S. AMJAD HUSSAIN 77 Maumee OH 59:25